Time;durP1;ratioP1;P1;durP2;ratioP2;P2;SDS_P1;SDS_P2;PMS_P1;PMS_P2;Temp;Humidity;BMP_temperature;BMP_pressure;BME280_temperature;BME280_humidity;BME280_pressure;Samples;Min_cycle;Max_cycle;Signal;HPM_P1;HPM_P2
2024/04/08 00:01:44;;;;;;;6.20;2.90;;;15.90;99.90;;;;;;5036869;28;20193;-69
2024/04/08 00:04:10;;;;;;;3.93;2.57;;;15.90;99.90;;;;;;5035663;28;20233;-67
2024/04/08 00:06:36;;;;;;;3.53;2.10;;;15.90;99.90;;;;;;5035072;28;20566;-67
2024/04/08 00:09:03;;;;;;;6.17;2.43;;;15.90;99.90;;;;;;5035165;28;20482;-67
2024/04/08 00:11:29;;;;;;;8.90;3.17;;;15.90;99.90;;;;;;5034583;28;21083;-70
2024/04/08 00:13:55;;;;;;;2.93;2.50;;;15.80;99.90;;;;;;5035816;28;20433;-68
2024/04/08 00:16:23;;;;;;;3.97;2.60;;;15.80;99.90;;;;;;5034967;28;20482;-70
2024/04/08 00:18:49;;;;;;;4.80;3.13;;;15.80;99.90;;;;;;5035534;28;20277;-67
2024/04/08 00:21:16;;;;;;;3.80;2.47;;;15.60;99.90;;;;;;5035008;28;20798;-69
2024/04/08 00:23:44;;;;;;;4.40;2.53;;;15.60;99.90;;;;;;5035282;28;20475;-69
2024/04/08 00:26:10;;;;;;;6.57;3.30;;;15.50;99.90;;;;;;5034865;28;20424;-69
2024/04/08 00:28:38;;;;;;;5.97;2.93;;;15.50;99.90;;;;;;5033582;28;20666;-69
2024/04/08 00:31:06;;;;;;;7.97;2.83;;;15.50;99.90;;;;;;5035019;28;20186;-70
2024/04/08 00:33:33;;;;;;;6.43;3.00;;;15.50;99.90;;;;;;5035411;28;20483;-68
2024/04/08 00:35:59;;;;;;;3.10;2.70;;;15.60;99.90;;;;;;5035431;28;20448;-69
2024/04/08 00:38:26;;;;;;;5.53;3.10;;;15.60;99.90;;;;;;5067438;28;20811;-70
2024/04/08 00:40:51;;;;;;;7.43;3.23;;;15.60;99.90;;;;;;5035241;28;20484;-70
2024/04/08 00:43:17;;;;;;;6.57;2.77;;;15.60;99.90;;;;;;5035014;28;20540;-69
2024/04/08 00:45:46;;;;;;;7.17;3.30;;;15.60;99.90;;;;;;5035177;28;20196;-67
2024/04/08 00:48:16;;;;;;;4.53;2.43;;;15.60;99.90;;;;;;5034907;28;20830;-68
2024/04/08 00:50:49;;;;;;;3.60;2.63;;;15.50;99.90;;;;;;5035315;28;20856;-68
2024/04/08 00:53:16;;;;;;;6.50;2.90;;;15.50;99.90;;;;;;5034547;28;20810;-69
2024/04/08 00:55:42;;;;;;;3.10;2.30;;;15.50;99.90;;;;;;5035491;28;20524;-71
2024/04/08 00:58:09;;;;;;;3.17;2.27;;;15.50;99.90;;;;;;5033805;28;20432;-69
2024/04/08 01:00:34;;;;;;;3.67;2.50;;;15.50;99.90;;;;;;5034227;28;20497;-67
2024/04/08 01:03:03;;;;;;;4.30;2.40;;;15.50;99.90;;;;;;5034555;28;20448;-68
2024/04/08 01:05:30;;;;;;;2.90;2.43;;;15.50;99.90;;;;;;5034348;28;20212;-70
2024/04/08 01:07:56;;;;;;;4.13;2.53;;;15.50;99.90;;;;;;5034018;28;20436;-68
2024/04/08 01:10:22;;;;;;;4.80;3.07;;;15.50;99.90;;;;;;5033881;28;20426;-70
2024/04/08 01:12:47;;;;;;;2.40;2.17;;;15.50;99.90;;;;;;5033891;28;20427;-69
2024/04/08 01:15:13;;;;;;;3.20;2.40;;;15.50;99.90;;;;;;5034037;28;20221;-71
2024/04/08 01:17:39;;;;;;;3.07;2.60;;;15.50;99.90;;;;;;5034304;28;20239;-68
2024/04/08 01:20:05;;;;;;;5.07;2.40;;;15.40;99.90;;;;;;5032274;28;20979;-69
2024/04/08 01:22:32;;;;;;;3.10;2.40;;;15.40;99.90;;;;;;5034439;28;20548;-68
2024/04/08 01:24:58;;;;;;;4.10;2.43;;;15.40;99.90;;;;;;5033980;28;20472;-69
2024/04/08 01:27:25;;;;;;;3.27;2.80;;;15.40;99.90;;;;;;5033966;28;20444;-67
2024/04/08 01:29:50;;;;;;;5.80;3.40;;;15.40;99.90;;;;;;5034515;28;20809;-70
2024/04/08 01:32:16;;;;;;;3.53;2.33;;;15.30;99.90;;;;;;5034071;28;20429;-67
2024/04/08 01:34:42;;;;;;;5.03;2.77;;;15.30;99.90;;;;;;5034182;28;20220;-67
2024/04/08 01:37:07;;;;;;;4.83;2.67;;;15.30;99.90;;;;;;5036865;28;20190;-68
2024/04/08 01:39:34;;;;;;;2.53;2.30;;;15.30;99.90;;;;;;5038172;28;20628;-68
2024/04/08 01:41:59;;;;;;;3.03;2.57;;;15.30;99.90;;;;;;5037545;28;20213;-69
2024/04/08 01:44:25;;;;;;;5.50;2.40;;;15.30;99.90;;;;;;5037813;28;20622;-69
2024/04/08 01:46:51;;;;;;;5.30;3.67;;;15.20;99.90;;;;;;5038563;28;20873;-68
2024/04/08 01:49:16;;;;;;;4.03;2.20;;;15.20;99.90;;;;;;5037352;28;20206;-69
2024/04/08 01:51:42;;;;;;;4.77;2.83;;;15.20;99.90;;;;;;5037909;28;20421;-67
2024/04/08 01:54:12;;;;;;;4.60;2.53;;;15.30;99.90;;;;;;5069496;28;20556;-70
2024/04/08 01:56:38;;;;;;;3.83;2.53;;;15.20;99.90;;;;;;5037790;28;20186;-70
2024/04/08 01:59:05;;;;;;;2.53;2.30;;;15.30;99.90;;;;;;5037369;28;20451;-68
2024/04/08 02:01:30;;;;;;;4.90;2.53;;;15.30;99.90;;;;;;5038035;28;20423;-69
2024/04/08 02:03:56;;;;;;;6.73;3.30;;;15.20;99.90;;;;;;5037513;28;20468;-68
2024/04/08 02:06:22;;;;;;;2.93;2.73;;;15.20;99.90;;;;;;5037608;28;20890;-67
2024/04/08 02:08:47;;;;;;;3.23;2.53;;;15.20;99.90;;;;;;5037223;28;20193;-67
2024/04/08 02:11:13;;;;;;;7.33;2.93;;;15.20;99.90;;;;;;5037476;28;20183;-68
2024/04/08 02:13:40;;;;;;;3.93;2.80;;;15.10;99.90;;;;;;5037263;28;20189;-68
2024/04/08 02:17:40;;;;;;;4.17;2.60;;;15.00;99.90;;;;;;5477673;25;20560;-70
2024/04/08 02:20:08;;;;;;;3.33;2.80;;;15.00;99.90;;;;;;5476117;26;20597;-66
2024/04/08 02:22:35;;;;;;;4.50;3.20;;;15.10;99.90;;;;;;5476887;26;20306;-69
2024/04/08 02:25:02;;;;;;;4.10;2.83;;;15.10;99.90;;;;;;5505195;25;20457;-67
2024/04/08 02:27:27;;;;;;;3.30;2.83;;;15.10;99.90;;;;;;5476685;26;20465;-68
2024/04/08 02:29:54;;;;;;;4.07;3.20;;;15.10;99.90;;;;;;5477709;26;20566;-69
2024/04/08 02:32:20;;;;;;;4.70;3.47;;;15.10;99.90;;;;;;5444552;26;20233;-68
2024/04/08 02:34:46;;;;;;;4.90;3.40;;;15.10;99.90;;;;;;5477137;26;20462;-70
2024/04/08 02:37:11;;;;;;;5.50;3.57;;;15.00;99.90;;;;;;5444067;26;20713;-69
2024/04/08 02:39:37;;;;;;;7.80;4.17;;;15.00;99.90;;;;;;5476677;26;20232;-70
2024/04/08 02:42:06;;;;;;;3.70;3.30;;;15.10;99.90;;;;;;5475244;26;20811;-67
2024/04/08 02:44:32;;;;;;;4.90;4.33;;;15.10;99.90;;;;;;5477705;26;20240;-68
2024/04/08 02:46:59;;;;;;;5.70;4.40;;;15.00;99.90;;;;;;5475299;26;20468;-67
2024/04/08 02:49:25;;;;;;;7.60;5.27;;;15.00;99.90;;;;;;5476832;26;20458;-66
2024/04/08 02:51:51;;;;;;;6.37;5.77;;;15.00;99.90;;;;;;5444606;26;20529;-68
2024/04/08 02:54:16;;;;;;;8.53;5.70;;;15.00;99.90;;;;;;5443627;26;21003;-67
2024/04/08 02:56:42;;;;;;;6.20;5.33;;;14.90;99.90;;;;;;5477160;26;20232;-70
2024/04/08 02:59:08;;;;;;;7.23;5.67;;;14.90;99.90;;;;;;5475160;26;20224;-67
2024/04/08 03:01:35;;;;;;;8.13;6.07;;;14.90;99.90;;;;;;5477433;26;20225;-67
2024/04/08 03:04:01;;;;;;;7.73;5.87;;;14.90;99.90;;;;;;5477094;26;20536;-69
2024/04/08 03:06:29;;;;;;;7.70;5.57;;;14.90;99.90;;;;;;5476082;26;20459;-70
2024/04/08 03:08:55;;;;;;;6.17;5.43;;;14.90;99.90;;;;;;5476208;26;20502;-69
2024/04/08 03:11:20;;;;;;;8.67;6.70;;;14.90;99.90;;;;;;5476344;26;20795;-70
2024/04/08 03:13:47;;;;;;;9.33;6.83;;;15.00;99.90;;;;;;5476689;26;20275;-68
2024/04/08 03:16:13;;;;;;;8.13;6.30;;;14.90;99.90;;;;;;5474263;26;20943;-69
2024/04/08 03:18:39;;;;;;;5.50;5.00;;;14.90;99.90;;;;;;5475647;26;20453;-67
2024/04/08 03:21:05;;;;;;;8.23;5.43;;;14.90;99.90;;;;;;5475962;26;20233;-70
2024/04/08 03:23:31;;;;;;;6.63;5.90;;;14.90;99.90;;;;;;5476412;26;20778;-69
2024/04/08 03:26:04;;;;;;;6.40;5.63;;;14.90;99.90;;;;;;5475764;26;20482;-69
2024/04/08 03:28:30;;;;;;;8.00;5.37;;;14.90;99.90;;;;;;5461301;26;20963;-70
2024/04/08 03:30:57;;;;;;;7.17;5.43;;;14.80;99.90;;;;;;5459963;26;20577;-67
2024/04/08 03:33:25;;;;;;;9.90;6.40;;;14.80;99.90;;;;;;5461693;26;20502;-70
2024/04/08 03:35:51;;;;;;;6.93;4.80;;;14.80;99.90;;;;;;5459682;26;21136;-69
2024/04/08 03:38:17;;;;;;;6.77;4.83;;;14.80;99.90;;;;;;5458787;26;20962;-70
2024/04/08 03:40:44;;;;;;;6.47;4.80;;;14.80;99.90;;;;;;5460714;26;20605;-68
2024/04/08 03:43:10;;;;;;;7.47;4.80;;;14.80;99.90;;;;;;5458811;26;20507;-71
2024/04/08 03:45:38;;;;;;;9.90;4.67;;;14.70;99.90;;;;;;5460858;26;20467;-69
2024/04/08 03:48:04;;;;;;;6.80;5.03;;;14.70;99.90;;;;;;5457950;26;21085;-70
2024/04/08 03:50:31;;;;;;;6.10;5.20;;;14.70;99.90;;;;;;5460378;26;20465;-71
2024/04/08 03:52:57;;;;;;;7.33;4.77;;;14.60;99.90;;;;;;5459622;26;21346;-68
2024/04/08 03:55:27;;;;;;;6.30;4.87;;;14.60;99.90;;;;;;5461160;26;20462;-70
2024/04/08 03:57:52;;;;;;;6.17;4.50;;;14.60;99.90;;;;;;5459825;26;20549;-68
2024/04/08 04:00:18;;;;;;;10.00;5.30;;;14.50;99.90;;;;;;5459604;26;20460;-67
2024/04/08 04:02:44;;;;;;;5.03;4.53;;;14.50;99.90;;;;;;5458852;26;20345;-71
2024/04/08 04:05:09;;;;;;;6.90;4.93;;;14.50;99.90;;;;;;5458964;26;20233;-68
2024/04/08 04:07:35;;;;;;;7.00;4.77;;;14.40;99.90;;;;;;5460568;26;20234;-70
2024/04/08 04:10:04;;;;;;;7.23;4.93;;;14.40;99.90;;;;;;5459115;26;20241;-70
2024/04/08 04:12:33;;;;;;;4.83;4.20;;;14.40;99.90;;;;;;5458898;26;20305;-72
2024/04/08 04:15:00;;;;;;;6.80;4.70;;;14.40;99.90;;;;;;5458648;26;20474;-69
2024/04/08 04:17:26;;;;;;;5.23;4.40;;;14.40;99.90;;;;;;5428573;26;20511;-69
2024/04/08 04:19:51;;;;;;;10.20;5.50;;;14.30;99.90;;;;;;5459385;26;20458;-70
2024/04/08 04:22:17;;;;;;;7.03;4.20;;;14.30;99.90;;;;;;5459455;26;20238;-68
2024/04/08 04:24:43;;;;;;;5.87;4.30;;;14.30;99.90;;;;;;5460095;26;20237;-68
2024/04/08 04:27:08;;;;;;;7.93;4.50;;;14.40;99.90;;;;;;5458500;26;21102;-68
2024/04/08 04:29:35;;;;;;;7.30;4.80;;;14.40;99.90;;;;;;5428067;26;20412;-71
2024/04/08 04:32:00;;;;;;;6.07;4.57;;;14.40;99.90;;;;;;5458776;26;20233;-70
2024/04/08 04:34:26;;;;;;;7.33;4.40;;;14.40;99.90;;;;;;5460642;26;20522;-68
2024/04/08 04:36:52;;;;;;;6.83;4.23;;;14.40;99.90;;;;;;5459737;26;20236;-68
2024/04/08 04:39:17;;;;;;;8.03;3.80;;;14.40;99.90;;;;;;5459290;26;20284;-71
2024/04/08 04:41:43;;;;;;;6.10;4.33;;;14.40;99.90;;;;;;5451548;26;20288;-71
2024/04/08 04:44:09;;;;;;;4.67;3.80;;;14.40;99.90;;;;;;5451828;26;20226;-68
2024/04/08 04:46:34;;;;;;;5.27;4.10;;;14.40;99.90;;;;;;5455005;26;20271;-68
2024/04/08 04:49:00;;;;;;;4.20;3.47;;;14.40;99.90;;;;;;5451982;26;20276;-69
2024/04/08 04:51:26;;;;;;;7.23;4.10;;;14.30;99.90;;;;;;5457868;26;20260;-67
2024/04/08 04:53:52;;;;;;;5.97;3.60;;;14.30;99.90;;;;;;5459579;26;20462;-67
2024/04/08 04:56:17;;;;;;;5.63;3.93;;;14.40;99.90;;;;;;5460721;26;20229;-68
2024/04/08 04:58:43;;;;;;;7.30;3.57;;;14.30;99.90;;;;;;5459727;26;20349;-68
2024/04/08 05:01:09;;;;;;;5.20;4.17;;;14.40;99.90;;;;;;5457959;26;21903;-67
2024/04/08 05:03:35;;;;;;;5.37;3.90;;;14.30;99.90;;;;;;5458050;26;20306;-71
2024/04/08 05:06:00;;;;;;;5.80;4.10;;;14.40;99.90;;;;;;5458091;26;20462;-70
2024/04/08 05:08:26;;;;;;;6.23;3.80;;;14.30;99.90;;;;;;5427264;26;20280;-70
2024/04/08 05:10:52;;;;;;;8.83;4.90;;;14.30;99.90;;;;;;5458384;26;20248;-71
2024/04/08 05:13:18;;;;;;;4.80;4.10;;;14.30;99.90;;;;;;5459476;26;20602;-68
2024/04/08 05:15:59;;;;;;;5.87;4.23;;;14.30;99.90;;;;;;5459791;26;20283;-68
2024/04/08 05:18:25;;;;;;;5.33;3.83;;;14.30;99.90;;;;;;5457485;26;20454;-70
2024/04/08 05:20:51;;;;;;;7.57;3.63;;;14.30;99.90;;;;;;5458165;26;20454;-67
2024/04/08 05:23:23;;;;;;;5.10;4.33;;;14.20;99.90;;;;;;5455668;26;20531;-70
2024/04/08 05:25:50;;;;;;;4.93;3.90;;;14.20;99.90;;;;;;5458934;26;20533;-68
2024/04/08 05:28:16;;;;;;;4.13;3.70;;;14.20;99.90;;;;;;5457416;26;20459;-71
2024/04/08 05:30:42;;;;;;;5.10;4.03;;;14.20;99.90;;;;;;5458693;26;20462;-68
2024/04/08 05:33:08;;;;;;;6.43;3.87;;;14.20;99.90;;;;;;5458890;26;20479;-67
2024/04/08 05:35:35;;;;;;;6.27;4.13;;;14.20;99.90;;;;;;5459262;26;20473;-67
2024/04/08 05:38:01;;;;;;;4.07;3.60;;;14.20;99.90;;;;;;5457291;26;20229;-70
2024/04/08 05:40:26;;;;;;;5.57;4.27;;;14.20;99.90;;;;;;5459161;26;20502;-69
2024/04/08 05:42:53;;;;;;;5.87;4.00;;;14.30;99.90;;;;;;5455531;26;20241;-70
2024/04/08 05:45:19;;;;;;;5.27;4.00;;;14.30;99.90;;;;;;5460096;26;20284;-70
2024/04/08 05:47:45;;;;;;;6.50;4.30;;;14.30;99.90;;;;;;5454991;26;20495;-70
2024/04/08 05:50:10;;;;;;;6.70;4.03;;;14.30;99.90;;;;;;5455977;26;21086;-67
2024/04/08 05:52:36;;;;;;;7.33;4.20;;;14.30;99.90;;;;;;5459075;26;20564;-70
2024/04/08 05:55:02;;;;;;;6.77;4.47;;;14.40;99.90;;;;;;5454580;26;20237;-68
2024/04/08 05:57:27;;;;;;;6.57;4.27;;;14.40;99.90;;;;;;5456482;26;20241;-69
2024/04/08 05:59:53;;;;;;;8.10;5.00;;;14.50;99.90;;;;;;5455778;26;20229;-70
2024/04/08 06:02:19;;;;;;;5.80;4.20;;;14.50;99.90;;;;;;5453774;26;20287;-70
2024/04/08 06:04:45;;;;;;;7.30;4.40;;;14.60;99.90;;;;;;5457450;26;20230;-70
2024/04/08 06:07:11;;;;;;;5.27;4.57;;;14.50;99.90;;;;;;5452262;26;20595;-67
2024/04/08 06:09:38;;;;;;;6.93;5.47;;;14.60;99.90;;;;;;5459632;26;20467;-70
2024/04/08 06:12:04;;;;;;;8.70;4.80;;;14.70;99.90;;;;;;5459797;26;20457;-68
2024/04/08 06:14:29;;;;;;;9.90;5.60;;;14.80;99.90;;;;;;5449372;26;21343;-70
2024/04/08 06:16:58;;;;;;;7.73;4.97;;;14.90;99.90;;;;;;5422439;26;20459;-69
2024/04/08 06:19:25;;;;;;;6.90;4.90;;;15.00;99.90;;;;;;5458034;26;20242;-69
2024/04/08 06:21:50;;;;;;;6.80;5.33;;;15.10;99.90;;;;;;5453190;26;20514;-68
2024/04/08 06:24:16;;;;;;;9.40;5.00;;;15.20;99.90;;;;;;5460812;26;21472;-70
2024/04/08 06:26:42;;;;;;;7.53;5.10;;;15.30;99.90;;;;;;5457690;26;20263;-70
2024/04/08 06:29:08;;;;;;;4.57;4.10;;;15.40;99.90;;;;;;5457465;26;20652;-70
2024/04/08 06:31:33;;;;;;;6.27;5.07;;;15.50;99.90;;;;;;5458391;26;20279;-70
2024/04/08 06:33:59;;;;;;;6.40;4.33;;;15.60;99.90;;;;;;5457658;26;20284;-70
2024/04/08 06:36:25;;;;;;;7.67;4.80;;;15.60;99.90;;;;;;5456698;26;21387;-68
2024/04/08 06:38:51;;;;;;;6.43;4.00;;;15.70;99.90;;;;;;5455663;26;20276;-71
2024/04/08 06:41:18;;;;;;;4.73;3.97;;;15.90;99.90;;;;;;5457167;26;20264;-70
2024/04/08 06:43:44;;;;;;;7.70;4.53;;;16.00;99.90;;;;;;5457964;26;20332;-69
2024/04/08 06:46:09;;;;;;;6.87;4.33;;;16.10;99.90;;;;;;5457029;26;20813;-70
2024/04/08 06:48:36;;;;;;;8.53;4.63;;;16.10;99.90;;;;;;5458372;26;20229;-69
2024/04/08 06:51:03;;;;;;;6.30;4.30;;;16.10;99.90;;;;;;5454901;26;20332;-71
2024/04/08 06:53:28;;;;;;;6.90;5.40;;;16.20;99.90;;;;;;5425740;26;20455;-68
2024/04/08 06:55:54;;;;;;;6.33;4.00;;;16.40;99.90;;;;;;5456531;26;20517;-68
2024/04/08 06:58:20;;;;;;;5.67;4.73;;;16.50;99.90;;;;;;5457060;26;20254;-71
2024/04/08 07:00:47;;;;;;;7.67;4.67;;;16.50;99.90;;;;;;5422976;26;20279;-68
2024/04/08 07:03:13;;;;;;;11.20;5.77;;;16.50;99.90;;;;;;5459399;26;20275;-70
2024/04/08 07:05:40;;;;;;;4.90;4.30;;;16.60;99.90;;;;;;5459345;26;20577;-70
2024/04/08 07:08:06;;;;;;;8.30;5.50;;;16.70;99.90;;;;;;5461453;26;20593;-70
2024/04/08 07:10:31;;;;;;;7.37;5.37;;;16.70;99.90;;;;;;5459974;26;21346;-68
2024/04/08 07:12:57;;;;;;;6.77;5.60;;;16.80;99.90;;;;;;5429069;26;20526;-69
2024/04/08 07:15:23;;;;;;;7.60;5.13;;;16.70;99.90;;;;;;5460467;26;20233;-69
2024/04/08 07:17:48;;;;;;;6.77;5.10;;;16.60;99.90;;;;;;5459679;26;20322;-68
2024/04/08 07:20:14;;;;;;;7.20;5.03;;;16.60;99.90;;;;;;5461009;26;20284;-68
2024/04/08 07:22:40;;;;;;;7.27;5.80;;;16.60;99.90;;;;;;5459951;26;20771;-69
2024/04/08 07:25:06;;;;;;;10.27;5.43;;;16.60;99.90;;;;;;5459079;26;20233;-70
2024/04/08 07:27:31;;;;;;;6.83;5.60;;;16.70;99.90;;;;;;5460855;26;20579;-70
2024/04/08 07:29:57;;;;;;;5.80;5.20;;;16.70;99.90;;;;;;5459543;26;20276;-70
2024/04/08 07:32:25;;;;;;;9.50;5.40;;;16.70;99.90;;;;;;5460352;26;20225;-71
2024/04/08 07:34:51;;;;;;;6.20;5.00;;;16.80;99.90;;;;;;5458063;26;20251;-68
2024/04/08 07:37:16;;;;;;;7.03;5.90;;;16.70;99.90;;;;;;5460851;26;20469;-71
2024/04/08 07:39:42;;;;;;;7.83;6.50;;;16.80;99.90;;;;;;5459614;26;20631;-69
2024/04/08 07:42:08;;;;;;;8.90;5.83;;;16.80;99.90;;;;;;5459603;26;20234;-70
2024/04/08 07:44:34;;;;;;;7.03;5.50;;;16.80;99.90;;;;;;5459729;26;20278;-70
2024/04/08 07:47:00;;;;;;;6.20;5.60;;;16.90;99.90;;;;;;5458175;26;21122;-68
2024/04/08 07:49:25;;;;;;;8.13;6.47;;;16.90;99.90;;;;;;5460427;26;20509;-68
2024/04/08 07:51:51;;;;;;;8.80;6.13;;;16.90;99.90;;;;;;5456869;26;20267;-68
2024/04/08 07:54:17;;;;;;;7.07;6.37;;;16.80;99.90;;;;;;5458472;26;20234;-69
2024/04/08 07:56:42;;;;;;;7.77;5.73;;;16.80;99.90;;;;;;5455942;26;20764;-68
2024/04/08 07:59:08;;;;;;;8.53;6.40;;;16.90;99.90;;;;;;5457135;26;20237;-68
2024/04/08 08:01:34;;;;;;;7.90;6.40;;;16.90;99.90;;;;;;5456831;26;20365;-70
2024/04/08 08:03:59;;;;;;;9.07;6.63;;;16.90;99.90;;;;;;5456263;26;21086;-70
2024/04/08 08:06:25;;;;;;;12.10;7.00;;;16.90;99.90;;;;;;5457651;26;20228;-68
2024/04/08 08:08:51;;;;;;;10.00;6.70;;;16.90;99.90;;;;;;5458638;26;20305;-68
2024/04/08 08:11:17;;;;;;;7.50;5.40;;;16.90;99.90;;;;;;5427689;26;20255;-68
2024/04/08 08:13:43;;;;;;;7.50;6.70;;;17.00;99.90;;;;;;5459293;26;20269;-70
2024/04/08 08:16:08;;;;;;;11.80;6.60;;;17.00;99.90;;;;;;5459036;26;20457;-69
2024/04/08 08:18:34;;;;;;;9.50;6.97;;;16.90;99.90;;;;;;5459314;26;20279;-68
2024/04/08 08:21:02;;;;;;;11.67;5.93;;;16.90;99.90;;;;;;5459810;26;20268;-69
2024/04/08 08:23:28;;;;;;;10.60;7.80;;;17.00;99.90;;;;;;5428092;26;20297;-69
2024/04/08 08:25:56;;;;;;;9.40;6.97;;;17.10;99.90;;;;;;5459271;26;20520;-71
2024/04/08 08:28:22;;;;;;;9.33;6.40;;;17.20;99.90;;;;;;5458216;26;20460;-68
2024/04/08 08:30:48;;;;;;;8.97;6.47;;;17.30;99.90;;;;;;5459898;26;20543;-70
2024/04/08 08:33:14;;;;;;;6.93;5.77;;;17.40;99.90;;;;;;5458911;26;20463;-70
2024/04/08 08:35:40;;;;;;;11.27;7.17;;;17.50;99.90;;;;;;5458399;26;20326;-70
2024/04/08 08:38:06;;;;;;;7.17;6.27;;;17.60;99.90;;;;;;5458640;26;20274;-70
2024/04/08 08:40:41;;;;;;;9.10;6.37;;;17.60;99.90;;;;;;5457003;26;20511;-69
2024/04/08 08:43:08;;;;;;;10.97;6.03;;;17.60;99.90;;;;;;5457240;26;20504;-70
2024/04/08 08:45:36;;;;;;;7.43;6.30;;;17.50;99.90;;;;;;5458275;26;20501;-70
2024/04/08 08:48:03;;;;;;;8.50;5.90;;;17.50;99.90;;;;;;5458838;26;20603;-70
2024/04/08 08:50:30;;;;;;;8.37;5.80;;;17.60;99.90;;;;;;5484022;26;20912;-69
2024/04/08 08:52:55;;;;;;;7.00;6.30;;;17.70;99.90;;;;;;5458379;26;20457;-69
2024/04/08 08:55:23;;;;;;;9.33;5.53;;;17.80;99.90;;;;;;5457507;26;20454;-69
2024/04/08 08:57:53;;;;;;;7.27;5.53;;;17.90;99.90;;;;;;5456369;26;20237;-69
2024/04/08 09:00:19;;;;;;;7.63;5.53;;;17.90;99.90;;;;;;5456652;26;20501;-69
2024/04/08 09:02:45;;;;;;;7.67;5.87;;;18.10;99.90;;;;;;5457684;26;20458;-69
2024/04/08 09:05:11;;;;;;;9.10;5.53;;;18.10;99.90;;;;;;5458395;26;20812;-69
2024/04/08 09:07:36;;;;;;;11.13;6.53;;;18.20;99.90;;;;;;5456945;26;20462;-69
2024/04/08 09:10:02;;;;;;;8.63;5.40;;;18.30;99.90;;;;;;5457861;26;20234;-71
2024/04/08 09:12:28;;;;;;;6.00;5.20;;;18.40;99.90;;;;;;5457878;26;20277;-68
2024/04/08 09:14:54;;;;;;;8.27;6.00;;;18.40;99.90;;;;;;5426457;26;20221;-71
2024/04/08 09:17:20;;;;;;;9.87;6.27;;;18.50;99.90;;;;;;5457276;26;20264;-70
2024/04/08 09:19:47;;;;;;;9.43;5.87;;;18.50;99.90;;;;;;5457258;26;20495;-71
2024/04/08 09:22:16;;;;;;;7.93;6.00;;;18.50;99.90;;;;;;5456232;26;21004;-68
2024/04/08 09:24:42;;;;;;;5.97;5.37;;;18.60;99.90;;;;;;5456867;26;20878;-69
2024/04/08 09:27:10;;;;;;;8.07;6.60;;;18.80;99.90;;;;;;5455479;26;20547;-70
2024/04/08 09:29:35;;;;;;;8.30;6.10;;;18.90;99.90;;;;;;5456567;26;21082;-70
2024/04/08 09:32:01;;;;;;;10.93;6.40;;;19.00;99.90;;;;;;5458105;26;20584;-70
2024/04/08 09:34:28;;;;;;;7.57;5.90;;;19.20;99.90;;;;;;5457705;26;20236;-70
2024/04/08 09:36:57;;;;;;;8.50;6.53;;;19.40;99.90;;;;;;5457172;26;20248;-71
2024/04/08 09:39:23;;;;;;;10.63;6.30;;;19.50;99.90;;;;;;5425775;26;20459;-69
2024/04/08 09:41:53;;;;;;;8.40;6.13;;;19.60;99.90;;;;;;5456582;26;20462;-69
2024/04/08 09:44:20;;;;;;;12.93;6.40;;;19.70;99.90;;;;;;5456886;26;20478;-69
2024/04/08 09:46:46;;;;;;;9.67;6.63;;;19.80;99.90;;;;;;5425002;26;20479;-68
2024/04/08 09:49:12;;;;;;;11.27;7.00;;;20.00;99.90;;;;;;5458797;26;20462;-69
2024/04/08 09:51:40;;;;;;;8.43;5.97;;;20.10;99.90;;;;;;5424341;26;20570;-68
2024/04/08 09:54:08;;;;;;;8.33;5.60;;;20.20;99.90;;;;;;5458248;26;20237;-68
2024/04/08 09:56:39;;;;;;;11.20;5.97;;;20.40;99.90;;;;;;5456467;26;20527;-68
2024/04/08 09:59:08;;;;;;;6.90;6.07;;;20.60;99.90;;;;;;5458179;26;20463;-68
2024/04/08 10:01:38;;;;;;;6.27;5.40;;;20.80;99.90;;;;;;5457034;26;20518;-69
2024/04/08 10:04:09;;;;;;;9.57;5.97;;;20.80;99.90;;;;;;5457302;26;20550;-70
2024/04/08 10:06:35;;;;;;;7.17;5.53;;;21.00;99.90;;;;;;5456389;26;20463;-70
2024/04/08 10:09:01;;;;;;;7.87;5.40;;;21.10;99.90;;;;;;5457161;26;20515;-69
2024/04/08 10:11:27;;;;;;;6.40;5.63;;;21.20;99.90;;;;;;5456605;26;20285;-69
2024/04/08 10:13:53;;;;;;;10.33;5.37;;;21.20;99.90;;;;;;5456433;26;20455;-70
2024/04/08 10:16:19;;;;;;;10.77;5.93;;;21.20;99.90;;;;;;5456987;26;20513;-69
2024/04/08 10:18:51;;;;;;;4.60;4.20;;;21.30;99.90;;;;;;5456756;26;20242;-69
2024/04/08 10:21:21;;;;;;;9.10;5.60;;;21.30;99.90;;;;;;5457855;26;20692;-70
2024/04/08 10:23:48;;;;;;;10.40;6.03;;;21.40;99.90;;;;;;5456356;26;20479;-69
2024/04/08 10:26:14;;;;;;;7.90;5.57;;;21.40;99.90;;;;;;5456891;26;20507;-68
2024/04/08 10:28:41;;;;;;;5.03;4.37;;;21.30;99.90;;;;;;5456142;26;20521;-71
2024/04/08 10:31:07;;;;;;;6.03;4.87;;;21.30;99.90;;;;;;5457071;26;20533;-70
2024/04/08 10:33:33;;;;;;;6.93;5.00;;;21.30;99.90;;;;;;5457575;26;20547;-68
2024/04/08 10:35:59;;;;;;;7.73;4.83;;;21.30;99.90;;;;;;5456232;26;20396;-69
2024/04/08 10:38:26;;;;;;;8.90;5.10;;;21.40;99.90;;;;;;5460242;26;20467;-70
2024/04/08 10:40:52;;;;;;;8.80;5.60;;;21.50;99.90;;;;;;5460424;26;20462;-69
2024/04/08 10:43:17;;;;;;;5.80;4.30;;;21.50;99.90;;;;;;5460307;26;20463;-70
2024/04/08 10:45:43;;;;;;;8.40;5.00;;;21.60;99.90;;;;;;5426427;26;20342;-70
2024/04/08 10:48:15;;;;;;;8.10;4.50;;;21.60;99.90;;;;;;5459625;26;20329;-68
2024/04/08 10:50:42;;;;;;;4.97;4.13;;;21.60;99.90;;;;;;5458841;26;20313;-69
2024/04/08 10:53:08;;;;;;;5.80;4.50;;;21.70;99.90;;;;;;5459949;26;20573;-70
2024/04/08 10:55:34;;;;;;;9.70;4.17;;;21.80;99.90;;;;;;5458524;26;20478;-68
2024/04/08 10:57:59;;;;;;;5.70;3.97;;;21.80;99.90;;;;;;5459554;26;20678;-68
2024/04/08 11:00:26;;;;;;;11.03;4.70;;;21.90;99.90;;;;;;5460250;26;20254;-69
2024/04/08 11:02:53;;;;;;;6.40;4.63;;;21.90;99.90;;;;;;5460352;26;20236;-68
2024/04/08 11:05:19;;;;;;;8.57;4.77;;;22.10;99.90;;;;;;5458654;26;20462;-70
2024/04/08 11:07:45;;;;;;;7.37;4.80;;;22.10;99.90;;;;;;5459734;26;21704;-70
2024/04/08 11:10:13;;;;;;;7.50;4.90;;;22.10;99.90;;;;;;5460214;26;20481;-69
2024/04/08 11:12:40;;;;;;;9.40;4.70;;;22.10;99.90;;;;;;5457654;26;20617;-70
2024/04/08 11:15:06;;;;;;;5.00;4.50;;;22.10;99.90;;;;;;5460468;26;20547;-72
2024/04/08 11:17:33;;;;;;;10.67;4.70;;;22.20;99.90;;;;;;5459461;26;20477;-71
2024/04/08 11:20:00;;;;;;;5.33;4.10;;;22.10;99.90;;;;;;5458922;26;20469;-71
2024/04/08 11:22:26;;;;;;;4.77;4.27;;;22.10;99.90;;;;;;5459905;26;20519;-71
2024/04/08 11:24:53;;;;;;;6.73;4.20;;;22.00;99.90;;;;;;5459988;26;20632;-66
2024/04/08 11:27:21;;;;;;;7.43;4.73;;;22.10;99.90;;;;;;5457920;26;20533;-70
2024/04/08 11:29:47;;;;;;;5.80;3.90;;;22.20;99.90;;;;;;5458668;26;20535;-71
2024/04/08 11:32:15;;;;;;;7.37;4.40;;;22.10;99.90;;;;;;5459986;26;20458;-69
2024/04/08 11:34:44;;;;;;;10.03;4.40;;;22.10;99.90;;;;;;5458751;26;20257;-69
2024/04/08 11:37:11;;;;;;;8.30;4.80;;;22.00;99.90;;;;;;5458746;26;20465;-70
2024/04/08 11:39:38;;;;;;;5.87;4.67;;;21.90;99.90;;;;;;5458354;26;20464;-72
2024/04/08 11:42:04;;;;;;;12.60;4.77;;;21.90;99.90;;;;;;5460364;26;20505;-67
2024/04/08 11:44:40;;;;;;;7.00;3.90;;;21.90;99.90;;;;;;5457944;26;20869;-66
2024/04/08 11:47:06;;;;;;;5.00;3.90;;;21.80;99.90;;;;;;5459523;26;20644;-66
2024/04/08 11:49:32;;;;;;;7.60;4.57;;;21.80;99.90;;;;;;5457579;26;20604;-69
2024/04/08 11:51:57;;;;;;;5.50;4.40;;;21.80;99.90;;;;;;5458805;26;20992;-69
2024/04/08 11:54:23;;;;;;;7.20;3.87;;;21.80;99.90;;;;;;5459037;26;21037;-69
2024/04/08 11:56:49;;;;;;;5.57;3.90;;;21.90;99.90;;;;;;5457414;26;20465;-67
2024/04/08 11:59:15;;;;;;;5.73;4.67;;;22.00;99.90;;;;;;5459450;26;20472;-68
2024/04/08 12:01:42;;;;;;;8.07;5.60;;;22.00;99.90;;;;;;5426439;26;20967;-68
2024/04/08 12:04:08;;;;;;;6.93;4.17;;;22.20;99.90;;;;;;5459824;26;20301;-67
2024/04/08 12:06:33;;;;;;;8.93;4.60;;;22.20;99.90;;;;;;5459370;26;20474;-69
2024/04/08 12:08:59;;;;;;;6.63;4.10;;;22.20;99.90;;;;;;5458233;26;20591;-69
2024/04/08 12:11:25;;;;;;;6.40;4.30;;;22.30;99.90;;;;;;5457926;26;20246;-68
2024/04/08 12:13:51;;;;;;;7.07;3.90;;;22.40;99.90;;;;;;5459132;26;20240;-69
2024/04/08 12:16:17;;;;;;;6.27;3.90;;;22.50;99.90;;;;;;5458650;26;20514;-67
2024/04/08 12:18:43;;;;;;;8.53;4.20;;;22.60;99.90;;;;;;5458755;26;20237;-70
2024/04/08 12:21:09;;;;;;;5.80;4.07;;;22.60;99.90;;;;;;5458461;26;20234;-68
2024/04/08 12:23:35;;;;;;;6.03;4.37;;;22.70;99.90;;;;;;5456916;26;20526;-68
2024/04/08 12:26:01;;;;;;;5.87;3.40;;;22.70;99.90;;;;;;5451235;26;20460;-67
2024/04/08 12:28:26;;;;;;;7.57;4.40;;;22.70;99.90;;;;;;5456306;26;21046;-68
2024/04/08 12:30:53;;;;;;;6.97;4.47;;;22.60;99.90;;;;;;5457267;26;20249;-69
2024/04/08 12:33:19;;;;;;;7.60;4.70;;;22.60;99.90;;;;;;5456797;26;20226;-66
2024/04/08 12:35:46;;;;;;;5.80;4.13;;;22.70;99.90;;;;;;5454189;26;20452;-68
2024/04/08 12:38:13;;;;;;;6.60;4.23;;;22.80;99.90;;;;;;5456867;26;20841;-68
2024/04/08 12:40:39;;;;;;;9.77;4.00;;;22.90;99.90;;;;;;5455502;26;20455;-67
2024/04/08 12:43:05;;;;;;;10.43;4.30;;;22.90;99.90;;;;;;5423100;26;20537;-68